Time;durP1;ratioP1;P1;durP2;ratioP2;P2;SDS_P1;SDS_P2;PMS_P1;PMS_P2;Temp;Humidity;BMP_temperature;BMP_pressure;BME280_temperature;BME280_humidity;BME280_pressure;Samples;Min_cycle;Max_cycle;Signal;HPM_P1;HPM_P2
2022/05/08 00:00:01;;;;;;;4.28;2.38;;;21.20;50.50;;;;;;4948060;29;20047;-61
2022/05/08 00:02:27;;;;;;;5.45;2.33;;;21.20;50.40;;;;;;4946956;29;20047;-62
2022/05/08 00:04:53;;;;;;;5.07;2.30;;;21.20;50.40;;;;;;4947833;28;20049;-60
2022/05/08 00:07:22;;;;;;;3.88;2.08;;;21.20;50.40;;;;;;4946445;29;20043;-60
2022/05/08 00:09:49;;;;;;;3.60;1.92;;;21.20;50.30;;;;;;4947619;29;20059;-59
2022/05/08 00:12:16;;;;;;;3.55;2.25;;;21.20;50.30;;;;;;4946702;28;20380;-60
2022/05/08 00:14:42;;;;;;;4.55;2.10;;;21.20;50.20;;;;;;4961911;28;20039;-59
2022/05/08 00:17:14;;;;;;;4.80;2.35;;;21.20;50.20;;;;;;4946981;29;20122;-59
2022/05/08 00:19:45;;;;;;;4.28;2.30;;;21.20;50.20;;;;;;4946592;28;20047;-62
2022/05/08 00:22:11;;;;;;;5.93;2.20;;;21.10;50.00;;;;;;4947674;29;20051;-60
2022/05/08 00:24:37;;;;;;;5.95;2.30;;;21.10;50.00;;;;;;4946053;28;20050;-61
2022/05/08 00:27:03;;;;;;;4.72;2.10;;;21.10;49.90;;;;;;4946519;28;20138;-59
2022/05/08 00:29:29;;;;;;;5.72;2.20;;;21.10;49.90;;;;;;4946864;29;20102;-59
2022/05/08 00:31:55;;;;;;;6.18;2.45;;;21.10;49.90;;;;;;4948128;29;20046;-59
2022/05/08 00:34:20;;;;;;;7.38;2.15;;;21.10;49.80;;;;;;4946279;28;20074;-59
2022/05/08 00:36:46;;;;;;;5.32;2.17;;;21.10;49.80;;;;;;4948302;28;20043;-59
2022/05/08 00:39:12;;;;;;;5.18;2.47;;;21.10;49.80;;;;;;4946492;28;20051;-60
2022/05/08 00:41:38;;;;;;;6.72;2.20;;;21.10;49.70;;;;;;4945760;28;20396;-60
2022/05/08 00:44:04;;;;;;;4.63;2.10;;;21.10;49.70;;;;;;4944894;29;20047;-59
2022/05/08 00:46:29;;;;;;;5.35;2.25;;;21.10;49.60;;;;;;4948013;28;20046;-61
2022/05/08 00:48:56;;;;;;;4.55;2.00;;;21.10;49.60;;;;;;4946775;28;20039;-62
2022/05/08 00:51:23;;;;;;;4.43;2.08;;;21.10;49.50;;;;;;4947200;29;20043;-61
2022/05/08 00:53:51;;;;;;;4.28;2.10;;;21.10;49.50;;;;;;4945579;28;20054;-59
2022/05/08 00:56:18;;;;;;;5.97;2.33;;;21.10;49.40;;;;;;4946424;29;20082;-61
2022/05/08 00:58:47;;;;;;;5.38;1.92;;;21.10;49.40;;;;;;4945470;28;20039;-62
2022/05/08 01:01:13;;;;;;;6.50;2.20;;;21.10;49.40;;;;;;4945559;29;20594;-60
2022/05/08 01:03:40;;;;;;;4.47;2.20;;;21.10;49.30;;;;;;4946397;28;20117;-59
2022/05/08 01:06:08;;;;;;;5.32;2.60;;;21.10;49.30;;;;;;4947157;28;20049;-59
2022/05/08 01:08:35;;;;;;;4.13;2.03;;;21.10;49.20;;;;;;4945338;28;21080;-59
2022/05/08 01:11:05;;;;;;;5.18;2.13;;;21.10;49.20;;;;;;4945645;29;20035;-61
2022/05/08 01:13:31;;;;;;;6.03;2.15;;;21.10;49.20;;;;;;4946667;29;20047;-59
2022/05/08 01:15:57;;;;;;;6.03;2.20;;;21.10;49.20;;;;;;4946996;28;20946;-60
2022/05/08 01:18:23;;;;;;;4.93;2.08;;;21.10;49.10;;;;;;4946141;29;20031;-61
2022/05/08 01:20:49;;;;;;;6.72;2.30;;;21.00;49.10;;;;;;4945894;29;20043;-60
2022/05/08 01:23:15;;;;;;;5.40;2.15;;;21.10;49.00;;;;;;4947093;28;20054;-60
2022/05/08 01:25:52;;;;;;;5.90;2.22;;;21.10;49.00;;;;;;4944989;29;20039;-59
2022/05/08 01:28:19;;;;;;;5.80;2.25;;;21.00;48.90;;;;;;4946421;29;20451;-59
2022/05/08 01:30:45;;;;;;;5.63;1.88;;;21.10;49.00;;;;;;4945552;28;20119;-59
2022/05/08 01:33:11;;;;;;;4.32;2.03;;;21.00;48.80;;;;;;4946235;29;20063;-60
2022/05/08 01:35:37;;;;;;;4.95;1.95;;;21.10;48.90;;;;;;4945430;29;20063;-59
2022/05/08 01:38:05;;;;;;;4.25;2.13;;;21.00;48.80;;;;;;4944094;28;20043;-60
2022/05/08 01:40:31;;;;;;;4.88;2.13;;;21.00;48.70;;;;;;4943761;28;20090;-60
2022/05/08 01:42:57;;;;;;;4.38;2.35;;;21.00;48.70;;;;;;4947081;28;20766;-60
2022/05/08 01:45:23;;;;;;;5.75;2.03;;;21.00;48.70;;;;;;4945793;28;20075;-59
2022/05/08 01:50:36;;;;;;;4.85;2.13;;;21.00;48.60;;;;;;4945846;29;20130;-59
2022/05/08 01:53:02;;;;;;;4.78;2.10;;;21.00;48.60;;;;;;4945865;28;20055;-60
2022/05/08 01:55:28;;;;;;;4.13;1.85;;;21.00;48.50;;;;;;4945863;28;20039;-61
2022/05/08 01:57:54;;;;;;;3.65;1.80;;;21.00;48.50;;;;;;4950090;28;20043;-59
2022/05/08 02:00:21;;;;;;;4.38;2.08;;;21.00;48.50;;;;;;4945618;28;20806;-61
2022/05/08 02:02:48;;;;;;;5.00;2.33;;;21.00;48.40;;;;;;4944220;28;20169;-61
2022/05/08 02:05:16;;;;;;;3.85;1.83;;;21.00;48.40;;;;;;4944809;28;20153;-60
2022/05/08 02:07:43;;;;;;;5.80;2.13;;;21.00;48.40;;;;;;4946421;29;20063;-62
2022/05/08 02:10:09;;;;;;;5.72;1.98;;;21.00;48.30;;;;;;4947070;29;20058;-61
2022/05/08 02:12:34;;;;;;;5.22;2.28;;;21.00;48.30;;;;;;4948987;28;20035;-60
2022/05/08 02:15:00;;;;;;;4.97;2.15;;;20.90;48.20;;;;;;4949184;28;20125;-59
2022/05/08 02:17:26;;;;;;;4.47;1.80;;;20.90;48.20;;;;;;4948254;28;20043;-60
2022/05/08 02:19:51;;;;;;;5.18;2.13;;;21.00;48.20;;;;;;4941122;28;20069;-60
2022/05/08 02:22:17;;;;;;;4.40;2.15;;;20.90;48.20;;;;;;4946147;29;20492;-61
2022/05/08 02:24:42;;;;;;;4.45;1.92;;;20.90;48.10;;;;;;4948355;28;20039;-59
2022/05/08 02:27:08;;;;;;;4.68;2.15;;;20.90;48.10;;;;;;4945965;29;20051;-60
2022/05/08 02:29:33;;;;;;;6.50;2.45;;;20.90;48.10;;;;;;4948592;28;20130;-60
2022/05/08 02:31:59;;;;;;;7.13;2.58;;;20.90;48.10;;;;;;4948026;28;20082;-60
2022/05/08 02:34:24;;;;;;;3.80;2.17;;;20.90;48.00;;;;;;4947081;28;20480;-60
2022/05/08 02:36:50;;;;;;;5.07;2.30;;;20.90;48.00;;;;;;4948608;28;20055;-59
2022/05/08 02:39:15;;;;;;;4.35;2.22;;;20.90;47.90;;;;;;4947060;29;20381;-59
2022/05/08 02:41:41;;;;;;;6.75;2.80;;;20.90;47.90;;;;;;4947604;28;20109;-59
2022/05/08 02:44:06;;;;;;;5.57;2.50;;;20.90;47.90;;;;;;4947911;28;20035;-60
2022/05/08 02:46:32;;;;;;;4.97;2.17;;;20.90;47.90;;;;;;4948083;29;20038;-59
2022/05/08 02:48:57;;;;;;;4.28;2.10;;;20.90;47.80;;;;;;4947894;28;20050;-59
2022/05/08 02:51:23;;;;;;;3.97;1.98;;;20.90;47.80;;;;;;4945683;29;20455;-60
2022/05/08 02:53:48;;;;;;;5.38;2.70;;;20.90;47.80;;;;;;4946495;28;20487;-60
2022/05/08 02:58:58;;;;;;;4.18;1.83;;;20.90;47.70;;;;;;4944561;29;20073;-61
2022/05/08 03:01:24;;;;;;;5.05;2.20;;;20.80;47.60;;;;;;4945611;28;21397;-61
2022/05/08 03:03:49;;;;;;;5.00;2.20;;;20.80;47.70;;;;;;4943975;29;20042;-59
2022/05/08 03:06:15;;;;;;;5.57;2.53;;;20.80;47.50;;;;;;4946223;28;20499;-59
2022/05/08 03:08:40;;;;;;;5.72;2.15;;;20.80;47.50;;;;;;4946527;28;20766;-60
2022/05/08 03:13:51;;;;;;;4.45;1.83;;;20.80;47.50;;;;;;4946633;28;20054;-61
2022/05/08 03:16:17;;;;;;;6.63;2.60;;;20.80;47.40;;;;;;4946590;29;20145;-59
2022/05/08 03:18:45;;;;;;;5.80;2.22;;;20.80;47.40;;;;;;4947109;29;20051;-59
2022/05/08 03:21:12;;;;;;;3.10;1.77;;;20.80;47.30;;;;;;4947584;29;20039;-59
2022/05/08 03:23:42;;;;;;;5.10;2.25;;;20.80;47.30;;;;;;4946605;29;20436;-60
2022/05/08 03:26:09;;;;;;;7.18;2.60;;;20.80;47.20;;;;;;4938406;29;20047;-60
2022/05/08 03:28:36;;;;;;;4.65;1.85;;;20.80;47.20;;;;;;4945818;28;20069;-61
2022/05/08 03:31:02;;;;;;;5.05;2.22;;;20.80;47.20;;;;;;4946948;28;20039;-59
2022/05/08 03:33:28;;;;;;;6.45;2.25;;;20.80;47.20;;;;;;4946834;28;20042;-62
2022/05/08 03:35:54;;;;;;;6.18;2.17;;;20.80;47.20;;;;;;4947035;28;20039;-61
2022/05/08 03:38:20;;;;;;;5.45;2.65;;;20.80;47.10;;;;;;4946913;28;20106;-61
2022/05/08 03:40:46;;;;;;;7.28;2.40;;;20.80;47.10;;;;;;4946821;29;20148;-59
2022/05/08 03:43:12;;;;;;;5.32;2.17;;;20.80;47.00;;;;;;4946584;28;20035;-61
2022/05/08 03:45:37;;;;;;;4.20;1.98;;;20.80;47.00;;;;;;4946665;28;20031;-59
2022/05/08 03:48:03;;;;;;;4.55;2.30;;;20.80;47.00;;;;;;4947288;29;20039;-60
2022/05/08 03:50:29;;;;;;;3.97;2.08;;;20.80;47.00;;;;;;4945327;29;20051;-61
2022/05/08 03:52:56;;;;;;;7.22;2.30;;;20.80;46.90;;;;;;4945640;29;20446;-61
2022/05/08 03:55:22;;;;;;;4.30;2.03;;;20.80;46.90;;;;;;4946117;29;20134;-60
2022/05/08 03:57:47;;;;;;;3.58;1.65;;;20.80;46.80;;;;;;4945612;29;20179;-59
2022/05/08 04:00:14;;;;;;;4.32;2.05;;;20.80;46.80;;;;;;4945898;28;20151;-61
2022/05/08 04:02:40;;;;;;;4.35;2.10;;;20.80;46.90;;;;;;4940981;29;20044;-59
2022/05/08 04:05:07;;;;;;;4.60;2.13;;;20.80;46.80;;;;;;4944180;28;20087;-62
2022/05/08 04:07:32;;;;;;;4.70;2.63;;;20.80;46.80;;;;;;4945265;28;20982;-60
2022/05/08 04:09:58;;;;;;;5.18;2.20;;;20.80;46.70;;;;;;4946287;28;20062;-59
2022/05/08 04:12:24;;;;;;;4.45;2.10;;;20.80;46.70;;;;;;4946132;28;20130;-61
2022/05/08 04:14:50;;;;;;;4.28;1.95;;;20.80;46.70;;;;;;4945980;29;20047;-60
2022/05/08 04:17:16;;;;;;;3.90;1.83;;;20.70;46.50;;;;;;4945031;28;20062;-61
2022/05/08 04:19:42;;;;;;;7.20;2.22;;;20.80;46.60;;;;;;4941361;28;20047;-63
2022/05/08 04:24:53;;;;;;;4.53;2.00;;;20.80;46.60;;;;;;4944630;28;20058;-59
2022/05/08 04:27:19;;;;;;;3.83;1.65;;;20.70;46.50;;;;;;4945912;29;20042;-59
2022/05/08 04:29:44;;;;;;;4.60;1.85;;;20.70;46.50;;;;;;4946959;28;20562;-59
2022/05/08 04:32:10;;;;;;;4.85;1.85;;;20.70;46.40;;;;;;4946851;28;20074;-60
2022/05/08 04:34:36;;;;;;;4.90;2.05;;;20.70;46.40;;;;;;4945479;28;20588;-60
2022/05/08 04:37:03;;;;;;;4.28;2.00;;;20.70;46.40;;;;;;4946449;29;20082;-61
2022/05/08 04:39:28;;;;;;;3.97;1.70;;;20.70;46.40;;;;;;4945890;29;20043;-61
2022/05/08 04:41:54;;;;;;;4.40;1.80;;;20.70;46.30;;;;;;4945853;28;20069;-62
2022/05/08 04:44:19;;;;;;;3.33;2.10;;;20.70;46.40;;;;;;4943906;29;20495;-61
2022/05/08 04:46:45;;;;;;;3.80;1.70;;;20.70;46.30;;;;;;4945569;28;20557;-61
2022/05/08 04:49:10;;;;;;;3.83;2.10;;;20.70;46.30;;;;;;4944192;28;20464;-61
2022/05/08 04:51:36;;;;;;;3.90;1.77;;;20.70;46.40;;;;;;4946278;29;20480;-62
2022/05/08 04:54:02;;;;;;;3.30;1.60;;;20.70;46.30;;;;;;4945584;28;20509;-61
2022/05/08 04:56:29;;;;;;;5.55;1.83;;;20.70;46.20;;;;;;4936017;29;20035;-60
2022/05/08 04:58:54;;;;;;;4.13;1.77;;;20.70;46.20;;;;;;4946349;28;20126;-61
2022/05/08 05:01:21;;;;;;;3.67;1.70;;;20.70;46.20;;;;;;4944973;28;20043;-59
2022/05/08 05:03:47;;;;;;;4.75;1.75;;;20.70;46.20;;;;;;4944927;29;20062;-62
2022/05/08 05:06:13;;;;;;;3.72;1.55;;;20.60;46.10;;;;;;4945672;28;20035;-61
2022/05/08 05:08:38;;;;;;;3.30;1.70;;;20.70;46.20;;;;;;4946070;28;20229;-61
2022/05/08 05:11:08;;;;;;;4.35;1.67;;;20.70;46.10;;;;;;4945323;29;20043;-60
2022/05/08 05:13:34;;;;;;;3.10;1.38;;;20.60;46.10;;;;;;4946223;29;20658;-60
2022/05/08 05:16:00;;;;;;;3.38;1.77;;;20.60;46.10;;;;;;4944646;28;20043;-61
2022/05/08 05:18:25;;;;;;;3.92;2.20;;;20.60;46.10;;;;;;4944253;28;20428;-59
2022/05/08 05:20:51;;;;;;;3.35;1.70;;;20.60;46.10;;;;;;4945389;28;20035;-60
2022/05/08 05:23:16;;;;;;;5.18;1.92;;;20.70;46.10;;;;;;4944737;29;20141;-59
2022/05/08 05:25:42;;;;;;;3.17;1.80;;;20.60;46.10;;;;;;4945532;28;20042;-59
2022/05/08 05:28:07;;;;;;;2.92;1.58;;;20.70;46.10;;;;;;4945261;28;20498;-60
2022/05/08 05:30:33;;;;;;;4.25;1.67;;;20.60;46.00;;;;;;4945403;28;20035;-59
2022/05/08 05:32:58;;;;;;;3.92;1.70;;;20.60;46.00;;;;;;4945488;28;20051;-60
2022/05/08 05:35:24;;;;;;;3.90;1.42;;;20.60;46.00;;;;;;4943925;29;20142;-61
2022/05/08 05:37:50;;;;;;;3.42;1.60;;;20.60;46.00;;;;;;4944981;28;20118;-61
2022/05/08 05:40:15;;;;;;;1.88;1.35;;;20.60;46.00;;;;;;4945179;29;20036;-60
2022/05/08 05:42:41;;;;;;;3.80;1.70;;;20.60;46.00;;;;;;4945489;28;20491;-60
2022/05/08 05:45:07;;;;;;;4.53;1.98;;;20.60;46.00;;;;;;4945315;28;20451;-59
2022/05/08 05:47:52;;;;;;;5.05;1.75;;;20.60;46.00;;;;;;4943579;28;20043;-59
2022/05/08 05:50:23;;;;;;;3.50;1.50;;;20.60;46.00;;;;;;4943330;28;20412;-59
2022/05/08 05:52:50;;;;;;;2.40;1.20;;;20.60;46.00;;;;;;4945317;29;20051;-60
2022/05/08 05:55:16;;;;;;;2.92;1.40;;;20.60;46.00;;;;;;4945351;28;20440;-60
2022/05/08 05:57:43;;;;;;;3.15;1.67;;;20.60;46.00;;;;;;4944626;29;20043;-61
2022/05/08 06:00:10;;;;;;;3.17;1.60;;;20.60;46.00;;;;;;4947779;28;20530;-59
2022/05/08 06:02:37;;;;;;;3.50;1.70;;;20.60;46.10;;;;;;4944966;28;20090;-60
2022/05/08 06:05:03;;;;;;;3.05;1.48;;;20.60;46.10;;;;;;4943779;28;20031;-59
2022/05/08 06:07:29;;;;;;;4.97;1.88;;;20.60;46.10;;;;;;4944748;29;20051;-59
2022/05/08 06:09:55;;;;;;;3.58;1.70;;;20.60;46.10;;;;;;4939535;28;20101;-57
2022/05/08 06:12:20;;;;;;;3.42;1.58;;;20.60;46.30;;;;;;4941173;28;20408;-59
2022/05/08 06:14:48;;;;;;;6.45;1.83;;;20.60;46.50;;;;;;4945458;29;20042;-58
2022/05/08 06:17:14;;;;;;;2.58;1.25;;;20.60;46.60;;;;;;4943648;29;20122;-57
2022/05/08 06:19:39;;;;;;;3.42;1.40;;;20.70;46.90;;;;;;4942936;28;20049;-59
2022/05/08 06:22:05;;;;;;;2.50;1.40;;;20.70;47.10;;;;;;4944048;28;20283;-58
2022/05/08 06:24:31;;;;;;;3.30;1.35;;;20.70;47.00;;;;;;4944368;29;20087;-60
2022/05/08 06:26:57;;;;;;;4.15;1.60;;;20.70;47.00;;;;;;4945510;28;20043;-58
2022/05/08 06:29:22;;;;;;;4.28;1.60;;;20.70;46.90;;;;;;4944796;28;20039;-58
2022/05/08 06:31:51;;;;;;;4.07;1.50;;;20.70;46.80;;;;;;4941778;28;20047;-58
2022/05/08 06:34:18;;;;;;;4.03;1.50;;;20.80;46.80;;;;;;4943413;29;20048;-57
2022/05/08 06:36:45;;;;;;;5.45;1.85;;;20.80;46.70;;;;;;4944308;28;20400;-60
2022/05/08 06:39:10;;;;;;;3.95;1.70;;;20.80;46.60;;;;;;4945020;28;20047;-57
2022/05/08 06:41:39;;;;;;;4.10;1.65;;;20.80;46.50;;;;;;4942268;28;20078;-59
2022/05/08 06:44:05;;;;;;;4.65;1.85;;;20.80;46.50;;;;;;4949293;28;20035;-58
2022/05/08 06:46:35;;;;;;;4.18;1.58;;;20.80;46.40;;;;;;4944079;28;20058;-57
2022/05/08 06:49:02;;;;;;;3.67;1.85;;;20.80;46.40;;;;;;4947191;28;20110;-58
2022/05/08 06:51:27;;;;;;;5.07;1.75;;;20.80;46.20;;;;;;4946774;29;20470;-58
2022/05/08 06:53:53;;;;;;;5.85;1.48;;;20.80;46.00;;;;;;4947793;28;20036;-58
2022/05/08 06:56:19;;;;;;;5.72;2.00;;;20.80;46.00;;;;;;4948071;28;20078;-58
2022/05/08 07:01:35;;;;;;;6.45;1.42;;;20.80;45.90;;;;;;4946116;28;20090;-57
2022/05/08 07:04:07;;;;;;;5.18;1.58;;;20.80;45.60;;;;;;4945280;28;20039;-61
2022/05/08 07:06:35;;;;;;;3.70;1.65;;;20.80;45.50;;;;;;4947391;29;20086;-58
2022/05/08 07:09:00;;;;;;;5.18;1.75;;;20.80;45.40;;;;;;4945352;28;20796;-58
2022/05/08 07:11:26;;;;;;;4.45;1.50;;;20.80;45.50;;;;;;4945878;29;20170;-60
2022/05/08 07:13:52;;;;;;;4.70;1.48;;;20.80;45.30;;;;;;4945316;28;20067;-58
2022/05/08 07:16:18;;;;;;;3.97;1.42;;;20.80;45.20;;;;;;4947566;28;20644;-58
2022/05/08 07:18:43;;;;;;;3.42;1.50;;;20.80;45.20;;;;;;4940087;28;20051;-61
2022/05/08 07:21:09;;;;;;;5.78;1.40;;;20.80;45.20;;;;;;4945875;28;20487;-58
2022/05/08 07:23:34;;;;;;;4.90;1.77;;;20.80;45.30;;;;;;4947615;28;20520;-59
2022/05/08 07:26:00;;;;;;;4.13;1.60;;;20.80;45.10;;;;;;4946727;29;20070;-58
2022/05/08 07:28:27;;;;;;;5.18;1.52;;;20.80;45.20;;;;;;4947971;28;20143;-58
2022/05/08 07:30:54;;;;;;;4.72;1.30;;;20.80;45.00;;;;;;4946541;28;20503;-58
2022/05/08 07:33:19;;;;;;;3.22;1.40;;;20.80;45.00;;;;;;4944524;28;20057;-59
2022/05/08 07:38:31;;;;;;;6.13;1.73;;;20.80;44.80;;;;;;4948052;28;20051;-59
2022/05/08 07:40:57;;;;;;;3.28;1.30;;;20.80;44.90;;;;;;4947790;28;20047;-60
2022/05/08 07:43:23;;;;;;;3.50;1.30;;;20.80;44.50;;;;;;4945981;29;20650;-59
2022/05/08 07:45:49;;;;;;;3.65;1.42;;;20.80;44.80;;;;;;4947375;28;20054;-60
2022/05/08 07:48:16;;;;;;;2.97;1.20;;;20.80;45.10;;;;;;4948058;29;20406;-59
2022/05/08 07:50:42;;;;;;;6.38;1.67;;;20.80;44.50;;;;;;4947137;29;20625;-61
2022/05/08 07:53:08;;;;;;;2.70;1.27;;;20.80;44.60;;;;;;4947414;28;20054;-60
2022/05/08 07:55:33;;;;;;;4.93;1.40;;;20.80;44.30;;;;;;4947825;28;20723;-59
2022/05/08 07:57:59;;;;;;;3.13;1.20;;;20.80;44.10;;;;;;4947073;28;20093;-59
2022/05/08 08:00:25;;;;;;;4.80;1.13;;;20.80;43.90;;;;;;4947958;28;20081;-58
2022/05/08 08:02:50;;;;;;;3.15;1.30;;;20.80;44.00;;;;;;4946063;28;20102;-59
2022/05/08 08:05:16;;;;;;;2.35;1.10;;;20.70;44.30;;;;;;4944898;28;20082;-57
2022/05/08 08:07:41;;;;;;;3.05;1.30;;;20.80;44.70;;;;;;4947548;29;20035;-58
2022/05/08 08:10:07;;;;;;;4.63;1.30;;;20.80;44.60;;;;;;4942870;28;20047;-57
2022/05/08 08:12:33;;;;;;;2.05;1.00;;;20.80;44.50;;;;;;4947147;28;20043;-58
2022/05/08 08:14:59;;;;;;;9.00;1.67;;;20.80;44.80;;;;;;4946775;29;20121;-58
2022/05/08 08:17:26;;;;;;;3.65;1.25;;;20.80;44.80;;;;;;4946219;28;20656;-58
2022/05/08 08:19:52;;;;;;;3.50;1.35;;;20.80;45.10;;;;;;4942384;29;20117;-59
2022/05/08 08:22:17;;;;;;;3.45;1.38;;;20.80;45.30;;;;;;4944650;29;20942;-59
2022/05/08 08:24:43;;;;;;;4.57;1.42;;;20.80;45.30;;;;;;4944717;29;20106;-58
2022/05/08 08:27:09;;;;;;;4.10;1.38;;;20.80;45.40;;;;;;4943650;28;20031;-58
2022/05/08 08:29:34;;;;;;;3.00;1.20;;;20.80;45.60;;;;;;4950713;28;20131;-58
2022/05/08 08:32:00;;;;;;;2.50;1.25;;;20.80;45.60;;;;;;4943934;28;20126;-58
2022/05/08 08:34:26;;;;;;;4.80;1.38;;;20.80;45.60;;;;;;4942927;28;20114;-61
2022/05/08 08:36:52;;;;;;;4.47;1.35;;;20.80;45.60;;;;;;4945308;28;20133;-59
2022/05/08 08:39:18;;;;;;;1.65;0.90;;;20.80;45.40;;;;;;4947153;28;20094;-59
2022/05/08 08:42:02;;;;;;;9.43;2.13;;;20.80;45.40;;;;;;4945303;29;20073;-58
2022/05/08 08:50:05;;;;;;;4.22;1.48;;;20.80;45.20;;;;;;4945290;29;20062;-60
2022/05/08 08:52:31;;;;;;;4.43;1.42;;;20.80;45.00;;;;;;4937024;29;20082;-59
2022/05/08 08:54:58;;;;;;;2.90;1.25;;;20.80;45.70;;;;;;4944110;28;20074;-59
2022/05/08 08:57:24;;;;;;;6.95;1.23;;;20.80;44.90;;;;;;4941970;28;20051;-59
2022/05/08 08:59:49;;;;;;;7.30;1.67;;;20.80;45.00;;;;;;4942951;28;20047;-61
2022/05/08 09:02:20;;;;;;;4.57;1.27;;;20.80;45.00;;;;;;4943760;29;20045;-59
2022/05/08 09:04:49;;;;;;;4.53;1.30;;;20.80;45.10;;;;;;4944354;28;20098;-60
2022/05/08 09:07:38;;;;;;;5.03;1.58;;;20.90;45.30;;;;;;4958261;28;20090;-61
2022/05/08 09:10:24;;;;;;;3.05;1.30;;;20.90;45.30;;;;;;4941194;29;20043;-59
2022/05/08 09:12:52;;;;;;;4.93;1.80;;;20.80;45.10;;;;;;4943633;29;20055;-60
2022/05/08 09:15:29;;;;;;;5.30;1.30;;;20.90;45.00;;;;;;4941931;28;20082;-59
2022/05/08 09:18:00;;;;;;;2.35;1.27;;;20.90;45.00;;;;;;4935543;28;20050;-59
2022/05/08 09:20:42;;;;;;;3.33;1.10;;;20.90;44.90;;;;;;4957633;28;20090;-62
2022/05/08 09:23:17;;;;;;;5.28;1.30;;;20.90;44.80;;;;;;4941816;29;20047;-61
2022/05/08 09:25:57;;;;;;;2.15;1.10;;;20.90;44.80;;;;;;4943217;29;20043;-65
2022/05/08 09:28:34;;;;;;;5.82;1.50;;;20.90;44.80;;;;;;4942636;29;20415;-61
2022/05/08 09:31:10;;;;;;;4.55;1.33;;;20.90;44.70;;;;;;4945166;29;20054;-60
2022/05/08 09:33:43;;;;;;;2.67;1.30;;;20.80;44.60;;;;;;4943110;29;20041;-61
2022/05/08 09:36:20;;;;;;;5.32;1.30;;;20.80;44.40;;;;;;4943118;29;20387;-60
2022/05/08 09:38:56;;;;;;;3.20;1.27;;;20.80;44.10;;;;;;4944856;29;20039;-59
2022/05/08 09:41:26;;;;;;;4.70;1.30;;;20.80;43.90;;;;;;4945528;28;20058;-60
2022/05/08 09:43:54;;;;;;;5.70;1.50;;;20.80;43.70;;;;;;4946006;29;20431;-58
2022/05/08 09:46:21;;;;;;;4.82;1.20;;;20.80;43.40;;;;;;4943689;29;21127;-59
2022/05/08 09:48:47;;;;;;;5.93;1.50;;;20.80;44.30;;;;;;4944207;28;20122;-59
2022/05/08 09:51:15;;;;;;;5.40;1.80;;;20.80;43.60;;;;;;4945393;28;20380;-59
2022/05/08 09:53:42;;;;;;;5.15;1.33;;;20.80;43.80;;;;;;4944137;28;20038;-60
2022/05/08 09:56:10;;;;;;;3.85;1.50;;;20.80;43.50;;;;;;4944295;28;20039;-59
2022/05/08 09:58:38;;;;;;;13.05;3.55;;;20.80;43.60;;;;;;4944787;29;20040;-59
2022/05/08 10:01:04;;;;;;;16.15;4.68;;;20.80;43.40;;;;;;4945057;28;20050;-59
2022/05/08 10:03:30;;;;;;;9.10;4.80;;;20.80;43.40;;;;;;4945140;28;20384;-60
2022/05/08 10:05:57;;;;;;;10.15;4.95;;;20.80;43.50;;;;;;4945883;29;20035;-59
2022/05/08 10:08:25;;;;;;;15.13;6.82;;;20.80;43.70;;;;;;4945205;28;20039;-59
2022/05/08 10:13:54;;;;;;;11.43;5.67;;;20.80;43.90;;;;;;4944402;29;20043;-58
2022/05/08 10:16:46;;;;;;;11.55;3.97;;;20.80;44.00;;;;;;4947156;28;20299;-58
2022/05/08 10:19:17;;;;;;;10.05;3.35;;;20.80;43.80;;;;;;4948551;28;20050;-58
2022/05/08 10:22:10;;;;;;;7.45;2.90;;;20.80;43.80;;;;;;4948023;28;20054;-59
2022/05/08 10:24:47;;;;;;;8.30;2.90;;;20.80;43.50;;;;;;4948926;29;20038;-59
2022/05/08 10:27:39;;;;;;;9.07;2.75;;;20.80;43.40;;;;;;4947145;28;20035;-61
2022/05/08 10:30:05;;;;;;;5.95;2.75;;;20.80;43.30;;;;;;4949688;29;20050;-60
2022/05/08 10:32:33;;;;;;;6.05;2.45;;;20.80;43.40;;;;;;4948327;28;20066;-62
2022/05/08 10:35:13;;;;;;;3.97;2.50;;;20.80;43.40;;;;;;4947768;29;20055;-59
2022/05/08 10:37:46;;;;;;;6.55;2.70;;;20.80;43.40;;;;;;4948135;29;20039;-61
2022/05/08 10:40:24;;;;;;;9.48;2.90;;;20.80;43.40;;;;;;4948185;28;20074;-61
2022/05/08 10:42:58;;;;;;;6.82;2.60;;;20.80;43.40;;;;;;4948397;28;20047;-59
2022/05/08 10:45:37;;;;;;;4.72;2.10;;;20.80;43.20;;;;;;4946868;28;20085;-58
2022/05/08 10:48:08;;;;;;;4.65;2.20;;;20.80;43.30;;;;;;4963920;28;20167;-59
2022/05/08 10:50:34;;;;;;;5.35;2.20;;;20.80;43.30;;;;;;4948560;28;20625;-60
2022/05/08 10:53:00;;;;;;;7.22;2.30;;;20.80;43.30;;;;;;4948188;28;20039;-61
2022/05/08 10:55:27;;;;;;;6.70;2.42;;;20.80;43.30;;;;;;4945561;28;20043;-60
2022/05/08 10:57:53;;;;;;;5.57;1.83;;;20.80;43.30;;;;;;4946917;29;20039;-60
2022/05/08 11:00:30;;;;;;;4.03;1.80;;;20.80;43.30;;;;;;4947271;28;20598;-61
2022/05/08 11:03:00;;;;;;;3.53;1.83;;;20.80;43.20;;;;;;4948789;29;20043;-60
2022/05/08 11:05:31;;;;;;;4.60;2.20;;;20.80;43.30;;;;;;4947664;28;20047;-59
2022/05/08 11:08:05;;;;;;;3.92;2.03;;;20.80;43.30;;;;;;4947434;28;20035;-61
2022/05/08 11:10:31;;;;;;;3.85;2.05;;;20.80;43.30;;;;;;4946234;29;20043;-60
2022/05/08 11:13:04;;;;;;;3.13;1.60;;;20.80;43.40;;;;;;4962353;28;20470;-60
2022/05/08 11:15:36;;;;;;;4.93;2.20;;;20.80;43.40;;;;;;4945798;29;20051;-60
2022/05/08 11:18:18;;;;;;;2.65;1.88;;;20.80;43.30;;;;;;4945795;29;20059;-62
2022/05/08 11:20:53;;;;;;;3.30;1.77;;;20.80;43.40;;;;;;4947841;29;20109;-61
2022/05/08 11:23:20;;;;;;;7.70;1.90;;;20.80;43.50;;;;;;4948938;28;20043;-60
2022/05/08 11:25:54;;;;;;;5.50;1.90;;;20.80;43.40;;;;;;4948731;28;20364;-60
2022/05/08 11:28:22;;;;;;;3.80;1.80;;;20.80;43.50;;;;;;4946215;28;20141;-61
2022/05/08 11:30:50;;;;;;;3.22;1.90;;;20.80;43.60;;;;;;4948774;28;20042;-59
2022/05/08 11:36:04;;;;;;;6.90;1.88;;;20.80;43.80;;;;;;4947576;29;20050;-61
2022/05/08 11:38:48;;;;;;;6.55;2.05;;;20.80;43.90;;;;;;4947430;28;20121;-60
2022/05/08 11:41:15;;;;;;;6.03;1.63;;;20.80;44.10;;;;;;4947144;28;20397;-60
2022/05/08 11:43:52;;;;;;;8.90;2.13;;;20.80;44.10;;;;;;4946857;28;20039;-59
2022/05/08 11:46:31;;;;;;;6.00;2.20;;;20.80;44.30;;;;;;4947437;29;20098;-60
2022/05/08 11:48:56;;;;;;;4.90;1.83;;;20.80;44.30;;;;;;4946707;28;20448;-60
2022/05/08 11:51:22;;;;;;;5.60;2.03;;;20.80;44.40;;;;;;4945448;28;20073;-60
2022/05/08 11:53:52;;;;;;;4.00;1.88;;;20.80;44.40;;;;;;4947322;29;20028;-61
2022/05/08 11:56:27;;;;;;;5.93;1.88;;;20.80;44.40;;;;;;4961509;28;20075;-62
2022/05/08 11:58:54;;;;;;;2.95;1.60;;;20.80;44.40;;;;;;4946493;28;20510;-61
2022/05/08 12:01:35;;;;;;;3.75;1.50;;;20.80;44.40;;;;;;4942081;29;20043;-62
2022/05/08 12:04:20;;;;;;;6.68;2.25;;;20.90;44.50;;;;;;4945168;28;20039;-61
2022/05/08 12:07:05;;;;;;;4.90;1.85;;;20.80;44.60;;;;;;4946056;29;20884;-59
2022/05/08 12:09:34;;;;;;;5.80;1.80;;;20.80;44.60;;;;;;4944848;28;20403;-59
2022/05/08 12:12:28;;;;;;;4.90;1.92;;;20.90;44.60;;;;;;4944464;28;20122;-60
2022/05/08 12:15:15;;;;;;;4.50;1.60;;;20.80;44.40;;;;;;4946064;29;20121;-59
2022/05/08 12:17:44;;;;;;;4.25;1.58;;;20.80;44.50;;;;;;4946691;29;20058;-59
2022/05/08 12:20:18;;;;;;;5.20;1.70;;;20.80;44.50;;;;;;4945847;29;21052;-61
2022/05/08 12:22:45;;;;;;;5.60;1.80;;;20.80;43.60;;;;;;4944496;29;20391;-60
2022/05/08 12:25:13;;;;;;;5.60;1.90;;;20.80;42.30;;;;;;4944350;29;20107;-60
2022/05/08 12:27:40;;;;;;;5.75;2.13;;;20.80;41.50;;;;;;4944397;28;20360;-59
2022/05/08 12:30:06;;;;;;;8.27;2.40;;;20.80;40.50;;;;;;4944667;28;20158;-59
2022/05/08 12:32:35;;;;;;;6.75;2.40;;;20.80;40.40;;;;;;4944727;28;20043;-61
2022/05/08 12:35:01;;;;;;;3.67;1.50;;;20.70;39.40;;;;;;4942627;29;20059;-60
2022/05/08 12:37:27;;;;;;;5.72;1.85;;;20.70;39.50;;;;;;4945219;28;20047;-61
2022/05/08 12:39:52;;;;;;;4.60;1.65;;;20.70;39.50;;;;;;4946254;28;20043;-60
2022/05/08 12:42:18;;;;;;;4.18;1.48;;;20.60;39.00;;;;;;4946172;29;20047;-59
2022/05/08 12:44:44;;;;;;;5.15;2.10;;;20.70;38.30;;;;;;4944223;29;20047;-59
2022/05/08 12:47:11;;;;;;;5.88;2.38;;;20.60;38.00;;;;;;4946954;29;20589;-59
2022/05/08 12:49:38;;;;;;;7.28;1.88;;;20.60;37.10;;;;;;4945597;29;20054;-59
2022/05/08 12:52:05;;;;;;;4.68;1.90;;;20.60;36.90;;;;;;4946669;28;20118;-59
2022/05/08 12:54:31;;;;;;;4.90;1.60;;;20.60;36.90;;;;;;4946442;28;20085;-59
2022/05/08 12:56:58;;;;;;;2.45;1.58;;;20.60;37.90;;;;;;4945392;29;20479;-60
2022/05/08 13:02:11;;;;;;;3.45;1.42;;;20.60;37.80;;;;;;4945843;29;20061;-60
2022/05/08 13:04:37;;;;;;;4.38;1.38;;;20.60;37.80;;;;;;4946129;29;20035;-59
2022/05/08 13:07:02;;;;;;;5.82;1.67;;;20.70;38.10;;;;;;4945310;28;20039;-60
2022/05/08 13:09:28;;;;;;;5.22;1.70;;;20.70;38.20;;;;;;4945313;29;20217;-59
2022/05/08 13:11:53;;;;;;;4.75;1.42;;;20.70;38.40;;;;;;4946614;28;20043;-62
2022/05/08 13:14:19;;;;;;;6.07;1.95;;;20.80;38.50;;;;;;4947149;28;20051;-59
2022/05/08 13:16:45;;;;;;;4.45;1.77;;;20.80;38.70;;;;;;4947055;28;20138;-60
2022/05/08 13:19:11;;;;;;;5.43;1.48;;;20.80;38.70;;;;;;4945816;29;20051;-60